Terminal Aerodrome Forecast
Issued by NWS

Home | Current Version | Previous Version | Text Only | Print | Product List | Glossary On
Versions: 1 2 3 4 5 6 7 8 9 10 11 12 13
508
FTUS42 KMLB 301120
TAFTIX
TAF
KTIX 301120Z 3012/0112 13010KT P6SM SCT400
     FM301400 13007KT P6SM FEW025 SCT200
     FM301700 11010KT P6SM FEW040 SCT200
     FM010100 12003KT P6SM FEW070 BKN250=

USA.gov is the U.S. government's official web portal to all federal, state and local government web resources and services.